sensor_id;sensor_type;location;lat;lon;timestamp;P1;durP1;ratioP1;P2;durP2;ratioP2
65552;SDS011;72126;51.560;14.368;2024-02-16T00:02:14;3.90;;;2.70;;
65552;SDS011;72126;51.560;14.368;2024-02-16T00:04:39;5.03;;;3.10;;
65552;SDS011;72126;51.560;14.368;2024-02-16T00:07:04;3.83;;;2.60;;
65552;SDS011;72126;51.560;14.368;2024-02-16T00:09:29;3.63;;;2.70;;
65552;SDS011;72126;51.560;14.368;2024-02-16T00:11:54;5.17;;;3.00;;
65552;SDS011;72126;51.560;14.368;2024-02-16T00:14:20;3.53;;;2.70;;
65552;SDS011;72126;51.560;14.368;2024-02-16T00:16:45;3.97;;;2.77;;
65552;SDS011;72126;51.560;14.368;2024-02-16T00:19:10;3.83;;;2.97;;
65552;SDS011;72126;51.560;14.368;2024-02-16T00:21:35;3.27;;;2.40;;
65552;SDS011;72126;51.560;14.368;2024-02-16T00:24:00;3.83;;;2.77;;
65552;SDS011;72126;51.560;14.368;2024-02-16T00:26:26;4.57;;;2.90;;
65552;SDS011;72126;51.560;14.368;2024-02-16T00:28:51;3.13;;;2.53;;
65552;SDS011;72126;51.560;14.368;2024-02-16T00:31:16;3.58;;;2.60;;
65552;SDS011;72126;51.560;14.368;2024-02-16T00:33:41;4.77;;;2.70;;
65552;SDS011;72126;51.560;14.368;2024-02-16T00:36:06;3.00;;;2.60;;
65552;SDS011;72126;51.560;14.368;2024-02-16T00:38:32;3.47;;;2.40;;
65552;SDS011;72126;51.560;14.368;2024-02-16T00:40:57;3.33;;;2.80;;
65552;SDS011;72126;51.560;14.368;2024-02-16T00:43:22;3.90;;;2.97;;
65552;SDS011;72126;51.560;14.368;2024-02-16T00:45:47;4.55;;;2.97;;
65552;SDS011;72126;51.560;14.368;2024-02-16T00:48:13;3.53;;;2.60;;
65552;SDS011;72126;51.560;14.368;2024-02-16T00:50:38;3.90;;;2.90;;
65552;SDS011;72126;51.560;14.368;2024-02-16T00:53:03;4.43;;;3.23;;
65552;SDS011;72126;51.560;14.368;2024-02-16T00:55:28;3.95;;;2.65;;
65552;SDS011;72126;51.560;14.368;2024-02-16T00:57:53;3.97;;;2.80;;
65552;SDS011;72126;51.560;14.368;2024-02-16T01:00:19;3.53;;;2.90;;
65552;SDS011;72126;51.560;14.368;2024-02-16T01:02:44;4.17;;;3.07;;
65552;SDS011;72126;51.560;14.368;2024-02-16T01:05:09;4.53;;;2.53;;
65552;SDS011;72126;51.560;14.368;2024-02-16T01:07:36;3.92;;;2.70;;
65552;SDS011;72126;51.560;14.368;2024-02-16T01:10:02;4.18;;;2.67;;
65552;SDS011;72126;51.560;14.368;2024-02-16T01:12:27;3.90;;;2.72;;
65552;SDS011;72126;51.560;14.368;2024-02-16T01:14:55;3.10;;;2.80;;
65552;SDS011;72126;51.560;14.368;2024-02-16T01:17:21;5.03;;;2.80;;
65552;SDS011;72126;51.560;14.368;2024-02-16T01:19:46;3.97;;;2.60;;
65552;SDS011;72126;51.560;14.368;2024-02-16T01:22:11;3.87;;;2.60;;
65552;SDS011;72126;51.560;14.368;2024-02-16T01:24:36;3.38;;;2.80;;
65552;SDS011;72126;51.560;14.368;2024-02-16T01:27:01;3.27;;;2.63;;
65552;SDS011;72126;51.560;14.368;2024-02-16T01:29:27;3.38;;;2.38;;
65552;SDS011;72126;51.560;14.368;2024-02-16T01:31:52;3.63;;;2.73;;
65552;SDS011;72126;51.560;14.368;2024-02-16T01:34:17;4.18;;;2.95;;
65552;SDS011;72126;51.560;14.368;2024-02-16T01:36:42;4.60;;;3.20;;
65552;SDS011;72126;51.560;14.368;2024-02-16T01:39:07;3.73;;;2.67;;
65552;SDS011;72126;51.560;14.368;2024-02-16T01:41:33;4.17;;;2.77;;
65552;SDS011;72126;51.560;14.368;2024-02-16T01:43:58;3.47;;;2.88;;
65552;SDS011;72126;51.560;14.368;2024-02-16T01:46:24;3.67;;;2.50;;
65552;SDS011;72126;51.560;14.368;2024-02-16T01:48:49;3.92;;;2.95;;
65552;SDS011;72126;51.560;14.368;2024-02-16T01:51:14;3.63;;;2.80;;
65552;SDS011;72126;51.560;14.368;2024-02-16T01:53:40;3.78;;;2.70;;
65552;SDS011;72126;51.560;14.368;2024-02-16T01:56:06;4.32;;;2.85;;
65552;SDS011;72126;51.560;14.368;2024-02-16T01:58:31;4.15;;;2.70;;
65552;SDS011;72126;51.560;14.368;2024-02-16T02:00:58;3.20;;;2.63;;
65552;SDS011;72126;51.560;14.368;2024-02-16T02:03:23;4.63;;;2.93;;
65552;SDS011;72126;51.560;14.368;2024-02-16T02:05:48;3.92;;;2.60;;
65552;SDS011;72126;51.560;14.368;2024-02-16T02:08:13;3.30;;;2.33;;
65552;SDS011;72126;51.560;14.368;2024-02-16T02:10:39;4.32;;;2.97;;
65552;SDS011;72126;51.560;14.368;2024-02-16T02:13:04;3.35;;;2.70;;
65552;SDS011;72126;51.560;14.368;2024-02-16T02:15:29;3.58;;;2.60;;
65552;SDS011;72126;51.560;14.368;2024-02-16T02:17:54;3.73;;;2.80;;
65552;SDS011;72126;51.560;14.368;2024-02-16T02:20:20;4.07;;;2.70;;
65552;SDS011;72126;51.560;14.368;2024-02-16T02:22:45;4.23;;;2.77;;
65552;SDS011;72126;51.560;14.368;2024-02-16T02:25:10;3.42;;;2.60;;
65552;SDS011;72126;51.560;14.368;2024-02-16T02:27:35;4.60;;;2.97;;
65552;SDS011;72126;51.560;14.368;2024-02-16T02:30:00;4.77;;;3.17;;
65552;SDS011;72126;51.560;14.368;2024-02-16T02:32:26;4.33;;;3.17;;
65552;SDS011;72126;51.560;14.368;2024-02-16T02:34:51;4.00;;;2.67;;
65552;SDS011;72126;51.560;14.368;2024-02-16T02:37:16;3.43;;;2.60;;
65552;SDS011;72126;51.560;14.368;2024-02-16T02:39:41;3.73;;;2.77;;
65552;SDS011;72126;51.560;14.368;2024-02-16T02:42:06;3.83;;;2.60;;
65552;SDS011;72126;51.560;14.368;2024-02-16T02:44:31;5.27;;;2.53;;
65552;SDS011;72126;51.560;14.368;2024-02-16T02:46:57;3.30;;;2.60;;
65552;SDS011;72126;51.560;14.368;2024-02-16T02:49:22;3.60;;;2.70;;
65552;SDS011;72126;51.560;14.368;2024-02-16T02:51:47;3.93;;;2.80;;
65552;SDS011;72126;51.560;14.368;2024-02-16T02:54:12;3.40;;;2.43;;
65552;SDS011;72126;51.560;14.368;2024-02-16T02:56:37;4.03;;;2.60;;
65552;SDS011;72126;51.560;14.368;2024-02-16T02:59:03;3.77;;;2.93;;
65552;SDS011;72126;51.560;14.368;2024-02-16T03:01:28;4.50;;;2.83;;
65552;SDS011;72126;51.560;14.368;2024-02-16T03:03:53;4.05;;;3.05;;
65552;SDS011;72126;51.560;14.368;2024-02-16T03:06:19;3.83;;;2.67;;
65552;SDS011;72126;51.560;14.368;2024-02-16T03:08:44;4.18;;;2.75;;
65552;SDS011;72126;51.560;14.368;2024-02-16T03:11:10;4.67;;;2.90;;
65552;SDS011;72126;51.560;14.368;2024-02-16T03:13:35;4.68;;;2.83;;
65552;SDS011;72126;51.560;14.368;2024-02-16T03:16:00;3.67;;;2.73;;
65552;SDS011;72126;51.560;14.368;2024-02-16T03:18:29;4.23;;;3.00;;
65552;SDS011;72126;51.560;14.368;2024-02-16T03:20:54;3.17;;;2.58;;
65552;SDS011;72126;51.560;14.368;2024-02-16T03:23:19;5.00;;;2.83;;
65552;SDS011;72126;51.560;14.368;2024-02-16T03:25:44;3.67;;;2.80;;
65552;SDS011;72126;51.560;14.368;2024-02-16T03:28:13;4.43;;;2.90;;
65552;SDS011;72126;51.560;14.368;2024-02-16T03:30:39;3.42;;;2.78;;
65552;SDS011;72126;51.560;14.368;2024-02-16T03:33:04;3.75;;;2.50;;
65552;SDS011;72126;51.560;14.368;2024-02-16T03:35:30;3.50;;;2.75;;
65552;SDS011;72126;51.560;14.368;2024-02-16T03:37:55;3.88;;;2.95;;
65552;SDS011;72126;51.560;14.368;2024-02-16T03:40:20;4.10;;;2.77;;
65552;SDS011;72126;51.560;14.368;2024-02-16T03:42:47;3.63;;;2.70;;
65552;SDS011;72126;51.560;14.368;2024-02-16T03:45:12;3.27;;;2.40;;
65552;SDS011;72126;51.560;14.368;2024-02-16T03:47:39;3.60;;;2.37;;
65552;SDS011;72126;51.560;14.368;2024-02-16T03:50:05;4.15;;;3.20;;
65552;SDS011;72126;51.560;14.368;2024-02-16T03:52:30;3.20;;;2.60;;
65552;SDS011;72126;51.560;14.368;2024-02-16T03:54:55;3.93;;;3.03;;
65552;SDS011;72126;51.560;14.368;2024-02-16T03:57:21;3.47;;;2.60;;
65552;SDS011;72126;51.560;14.368;2024-02-16T03:59:46;3.50;;;2.53;;
65552;SDS011;72126;51.560;14.368;2024-02-16T04:02:12;4.03;;;2.67;;
65552;SDS011;72126;51.560;14.368;2024-02-16T04:04:37;3.58;;;2.50;;
65552;SDS011;72126;51.560;14.368;2024-02-16T04:07:03;3.10;;;2.47;;
65552;SDS011;72126;51.560;14.368;2024-02-16T04:09:31;3.53;;;2.60;;
65552;SDS011;72126;51.560;14.368;2024-02-16T04:11:56;4.28;;;2.70;;
65552;SDS011;72126;51.560;14.368;2024-02-16T04:14:22;3.70;;;2.73;;
65552;SDS011;72126;51.560;14.368;2024-02-16T04:16:47;3.95;;;2.63;;
65552;SDS011;72126;51.560;14.368;2024-02-16T04:19:12;3.50;;;2.67;;
65552;SDS011;72126;51.560;14.368;2024-02-16T04:21:37;5.20;;;3.00;;
65552;SDS011;72126;51.560;14.368;2024-02-16T04:24:02;3.60;;;2.53;;
65552;SDS011;72126;51.560;14.368;2024-02-16T04:26:28;3.83;;;2.60;;
65552;SDS011;72126;51.560;14.368;2024-02-16T04:28:53;4.05;;;2.80;;
65552;SDS011;72126;51.560;14.368;2024-02-16T04:31:18;4.53;;;2.90;;
65552;SDS011;72126;51.560;14.368;2024-02-16T04:33:43;3.73;;;2.70;;
65552;SDS011;72126;51.560;14.368;2024-02-16T04:36:08;3.93;;;2.73;;
65552;SDS011;72126;51.560;14.368;2024-02-16T04:38:34;4.50;;;2.80;;
65552;SDS011;72126;51.560;14.368;2024-02-16T04:40:59;3.28;;;2.63;;
65552;SDS011;72126;51.560;14.368;2024-02-16T04:43:24;4.27;;;2.40;;
65552;SDS011;72126;51.560;14.368;2024-02-16T04:45:49;4.57;;;2.77;;
65552;SDS011;72126;51.560;14.368;2024-02-16T04:48:14;3.87;;;2.63;;
65552;SDS011;72126;51.560;14.368;2024-02-16T04:50:40;4.88;;;2.83;;
65552;SDS011;72126;51.560;14.368;2024-02-16T04:53:05;6.40;;;3.30;;
65552;SDS011;72126;51.560;14.368;2024-02-16T04:55:30;5.68;;;2.80;;
65552;SDS011;72126;51.560;14.368;2024-02-16T04:57:56;3.60;;;2.60;;
65552;SDS011;72126;51.560;14.368;2024-02-16T05:00:21;3.83;;;2.65;;
65552;SDS011;72126;51.560;14.368;2024-02-16T05:02:47;4.38;;;3.08;;
65552;SDS011;72126;51.560;14.368;2024-02-16T05:05:12;3.22;;;2.60;;
65552;SDS011;72126;51.560;14.368;2024-02-16T05:07:38;4.28;;;2.60;;
65552;SDS011;72126;51.560;14.368;2024-02-16T05:10:03;3.10;;;2.50;;
65552;SDS011;72126;51.560;14.368;2024-02-16T05:12:32;3.58;;;2.47;;
65552;SDS011;72126;51.560;14.368;2024-02-16T05:14:58;4.50;;;3.03;;
65552;SDS011;72126;51.560;14.368;2024-02-16T05:17:23;4.70;;;3.07;;
65552;SDS011;72126;51.560;14.368;2024-02-16T05:19:48;3.30;;;2.78;;
65552;SDS011;72126;51.560;14.368;2024-02-16T05:22:13;3.67;;;2.90;;
65552;SDS011;72126;51.560;14.368;2024-02-16T05:24:38;2.85;;;2.45;;
65552;SDS011;72126;51.560;14.368;2024-02-16T05:27:04;4.03;;;2.93;;
65552;SDS011;72126;51.560;14.368;2024-02-16T05:29:29;4.20;;;2.80;;
65552;SDS011;72126;51.560;14.368;2024-02-16T05:31:54;4.40;;;3.20;;
65552;SDS011;72126;51.560;14.368;2024-02-16T05:34:19;4.60;;;3.10;;
65552;SDS011;72126;51.560;14.368;2024-02-16T05:36:45;5.40;;;3.17;;
65552;SDS011;72126;51.560;14.368;2024-02-16T05:39:10;3.40;;;2.60;;
65552;SDS011;72126;51.560;14.368;2024-02-16T05:41:36;3.92;;;2.83;;
65552;SDS011;72126;51.560;14.368;2024-02-16T05:44:01;3.17;;;2.77;;
65552;SDS011;72126;51.560;14.368;2024-02-16T05:46:26;3.20;;;2.60;;
65552;SDS011;72126;51.560;14.368;2024-02-16T05:48:51;4.90;;;3.03;;
65552;SDS011;72126;51.560;14.368;2024-02-16T05:51:16;3.80;;;2.67;;
65552;SDS011;72126;51.560;14.368;2024-02-16T05:53:41;3.67;;;2.43;;
65552;SDS011;72126;51.560;14.368;2024-02-16T05:56:07;3.63;;;2.80;;
65552;SDS011;72126;51.560;14.368;2024-02-16T05:58:34;3.22;;;2.78;;
65552;SDS011;72126;51.560;14.368;2024-02-16T06:00:59;4.37;;;2.73;;
65552;SDS011;72126;51.560;14.368;2024-02-16T06:03:24;4.20;;;3.00;;
65552;SDS011;72126;51.560;14.368;2024-02-16T06:05:50;4.90;;;2.88;;
65552;SDS011;72126;51.560;14.368;2024-02-16T06:08:15;4.03;;;2.85;;
65552;SDS011;72126;51.560;14.368;2024-02-16T06:10:40;4.18;;;2.90;;
65552;SDS011;72126;51.560;14.368;2024-02-16T06:13:06;3.85;;;2.80;;
65552;SDS011;72126;51.560;14.368;2024-02-16T06:15:31;3.77;;;2.70;;
65552;SDS011;72126;51.560;14.368;2024-02-16T06:17:56;3.92;;;3.00;;
65552;SDS011;72126;51.560;14.368;2024-02-16T06:20:21;4.27;;;3.00;;
65552;SDS011;72126;51.560;14.368;2024-02-16T06:22:47;4.18;;;3.13;;
65552;SDS011;72126;51.560;14.368;2024-02-16T06:25:12;4.85;;;2.95;;
65552;SDS011;72126;51.560;14.368;2024-02-16T06:27:37;5.05;;;2.55;;
65552;SDS011;72126;51.560;14.368;2024-02-16T06:30:03;4.33;;;2.87;;
65552;SDS011;72126;51.560;14.368;2024-02-16T06:32:28;4.30;;;2.83;;
65552;SDS011;72126;51.560;14.368;2024-02-16T06:34:53;3.93;;;2.97;;
65552;SDS011;72126;51.560;14.368;2024-02-16T06:37:18;4.53;;;2.90;;
65552;SDS011;72126;51.560;14.368;2024-02-16T06:39:44;5.15;;;2.83;;
65552;SDS011;72126;51.560;14.368;2024-02-16T06:42:09;4.73;;;3.27;;
65552;SDS011;72126;51.560;14.368;2024-02-16T06:44:34;3.73;;;2.73;;
65552;SDS011;72126;51.560;14.368;2024-02-16T06:46:59;4.30;;;2.97;;
65552;SDS011;72126;51.560;14.368;2024-02-16T06:49:24;3.63;;;2.73;;
65552;SDS011;72126;51.560;14.368;2024-02-16T06:51:50;4.87;;;3.20;;
65552;SDS011;72126;51.560;14.368;2024-02-16T06:54:15;4.40;;;2.77;;
65552;SDS011;72126;51.560;14.368;2024-02-16T06:56:43;4.23;;;2.73;;
65552;SDS011;72126;51.560;14.368;2024-02-16T06:59:08;4.35;;;2.80;;
65552;SDS011;72126;51.560;14.368;2024-02-16T07:01:33;5.30;;;2.73;;
65552;SDS011;72126;51.560;14.368;2024-02-16T07:03:58;4.82;;;3.38;;
65552;SDS011;72126;51.560;14.368;2024-02-16T07:06:24;3.30;;;2.57;;
65552;SDS011;72126;51.560;14.368;2024-02-16T07:08:49;4.77;;;3.20;;
65552;SDS011;72126;51.560;14.368;2024-02-16T07:11:14;4.17;;;3.03;;
65552;SDS011;72126;51.560;14.368;2024-02-16T07:13:40;5.20;;;3.10;;
65552;SDS011;72126;51.560;14.368;2024-02-16T07:16:05;4.70;;;2.80;;
65552;SDS011;72126;51.560;14.368;2024-02-16T07:18:31;4.30;;;3.08;;
65552;SDS011;72126;51.560;14.368;2024-02-16T07:20:56;4.70;;;3.17;;
65552;SDS011;72126;51.560;14.368;2024-02-16T07:23:22;4.78;;;2.97;;
65552;SDS011;72126;51.560;14.368;2024-02-16T07:25:47;3.40;;;2.53;;
65552;SDS011;72126;51.560;14.368;2024-02-16T07:28:12;4.78;;;3.22;;
65552;SDS011;72126;51.560;14.368;2024-02-16T07:30:37;4.70;;;3.20;;
65552;SDS011;72126;51.560;14.368;2024-02-16T07:33:02;3.50;;;3.03;;
65552;SDS011;72126;51.560;14.368;2024-02-16T07:35:28;4.50;;;2.97;;
65552;SDS011;72126;51.560;14.368;2024-02-16T07:37:53;6.77;;;3.23;;
65552;SDS011;72126;51.560;14.368;2024-02-16T07:40:18;4.80;;;3.00;;
65552;SDS011;72126;51.560;14.368;2024-02-16T07:42:43;5.00;;;3.00;;
65552;SDS011;72126;51.560;14.368;2024-02-16T07:45:09;5.03;;;3.43;;
65552;SDS011;72126;51.560;14.368;2024-02-16T07:47:34;4.18;;;3.25;;
65552;SDS011;72126;51.560;14.368;2024-02-16T07:49:59;4.57;;;2.85;;
65552;SDS011;72126;51.560;14.368;2024-02-16T07:52:24;5.17;;;3.13;;
65552;SDS011;72126;51.560;14.368;2024-02-16T07:54:50;4.90;;;3.20;;
65552;SDS011;72126;51.560;14.368;2024-02-16T07:57:15;4.93;;;3.10;;
65552;SDS011;72126;51.560;14.368;2024-02-16T07:59:40;3.43;;;2.50;;
65552;SDS011;72126;51.560;14.368;2024-02-16T08:02:05;4.47;;;3.00;;
65552;SDS011;72126;51.560;14.368;2024-02-16T08:04:31;4.93;;;3.45;;
65552;SDS011;72126;51.560;14.368;2024-02-16T08:06:56;4.80;;;3.13;;
65552;SDS011;72126;51.560;14.368;2024-02-16T08:09:22;4.28;;;2.70;;
65552;SDS011;72126;51.560;14.368;2024-02-16T08:11:47;3.87;;;2.70;;
65552;SDS011;72126;51.560;14.368;2024-02-16T08:14:12;6.70;;;3.20;;
65552;SDS011;72126;51.560;14.368;2024-02-16T08:16:37;5.30;;;3.20;;
65552;SDS011;72126;51.560;14.368;2024-02-16T08:19:02;5.53;;;3.70;;
65552;SDS011;72126;51.560;14.368;2024-02-16T08:21:27;6.30;;;3.83;;
65552;SDS011;72126;51.560;14.368;2024-02-16T08:23:53;6.18;;;3.60;;
65552;SDS011;72126;51.560;14.368;2024-02-16T08:26:18;6.20;;;3.97;;
65552;SDS011;72126;51.560;14.368;2024-02-16T08:28:44;7.03;;;4.72;;
65552;SDS011;72126;51.560;14.368;2024-02-16T08:31:09;5.53;;;4.05;;
65552;SDS011;72126;51.560;14.368;2024-02-16T08:33:34;8.00;;;4.07;;
65552;SDS011;72126;51.560;14.368;2024-02-16T08:35:59;5.70;;;4.07;;
65552;SDS011;72126;51.560;14.368;2024-02-16T08:38:24;6.63;;;4.20;;
65552;SDS011;72126;51.560;14.368;2024-02-16T08:40:50;6.00;;;3.90;;
65552;SDS011;72126;51.560;14.368;2024-02-16T08:43:15;5.93;;;4.00;;
65552;SDS011;72126;51.560;14.368;2024-02-16T08:45:40;6.17;;;4.03;;
65552;SDS011;72126;51.560;14.368;2024-02-16T08:48:05;7.03;;;4.00;;
65552;SDS011;72126;51.560;14.368;2024-02-16T08:50:31;6.78;;;4.22;;
65552;SDS011;72126;51.560;14.368;2024-02-16T08:52:56;6.70;;;4.33;;
65552;SDS011;72126;51.560;14.368;2024-02-16T08:55:21;5.90;;;3.87;;
65552;SDS011;72126;51.560;14.368;2024-02-16T08:57:46;6.27;;;4.40;;
65552;SDS011;72126;51.560;14.368;2024-02-16T09:00:11;6.97;;;4.20;;
65552;SDS011;72126;51.560;14.368;2024-02-16T09:02:37;6.00;;;4.05;;
65552;SDS011;72126;51.560;14.368;2024-02-16T09:05:03;5.03;;;3.55;;
65552;SDS011;72126;51.560;14.368;2024-02-16T09:07:29;6.57;;;3.45;;
65552;SDS011;72126;51.560;14.368;2024-02-16T09:09:55;5.75;;;3.75;;
65552;SDS011;72126;51.560;14.368;2024-02-16T09:12:20;4.83;;;3.23;;
65552;SDS011;72126;51.560;14.368;2024-02-16T09:14:45;5.90;;;4.13;;
65552;SDS011;72126;51.560;14.368;2024-02-16T09:17:10;5.20;;;3.90;;
65552;SDS011;72126;51.560;14.368;2024-02-16T09:19:35;6.07;;;3.80;;
65552;SDS011;72126;51.560;14.368;2024-02-16T09:22:01;5.07;;;3.50;;
65552;SDS011;72126;51.560;14.368;2024-02-16T09:24:26;4.40;;;3.20;;
65552;SDS011;72126;51.560;14.368;2024-02-16T09:26:51;4.97;;;3.40;;
65552;SDS011;72126;51.560;14.368;2024-02-16T09:29:16;4.10;;;3.20;;
65552;SDS011;72126;51.560;14.368;2024-02-16T09:31:41;7.30;;;3.27;;
65552;SDS011;72126;51.560;14.368;2024-02-16T09:34:06;4.53;;;3.10;;
65552;SDS011;72126;51.560;14.368;2024-02-16T09:36:32;4.97;;;3.10;;
65552;SDS011;72126;51.560;14.368;2024-02-16T09:38:57;3.70;;;2.93;;
65552;SDS011;72126;51.560;14.368;2024-02-16T09:41:22;4.53;;;3.23;;
65552;SDS011;72126;51.560;14.368;2024-02-16T09:43:47;4.90;;;3.70;;
65552;SDS011;72126;51.560;14.368;2024-02-16T09:46:12;5.15;;;2.80;;
65552;SDS011;72126;51.560;14.368;2024-02-16T09:48:40;5.75;;;3.17;;
65552;SDS011;72126;51.560;14.368;2024-02-16T09:51:05;4.70;;;3.20;;
65552;SDS011;72126;51.560;14.368;2024-02-16T09:53:30;4.30;;;3.10;;
65552;SDS011;72126;51.560;14.368;2024-02-16T09:55:55;2.90;;;2.50;;
65552;SDS011;72126;51.560;14.368;2024-02-16T09:58:21;5.03;;;3.60;;
65552;SDS011;72126;51.560;14.368;2024-02-16T10:03:27;3.95;;;2.78;;
65552;SDS011;72126;51.560;14.368;2024-02-16T10:06:10;4.55;;;2.88;;
65552;SDS011;72126;51.560;14.368;2024-02-16T10:08:46;4.82;;;3.03;;
65552;SDS011;72126;51.560;14.368;2024-02-16T10:11:16;4.20;;;3.00;;
65552;SDS011;72126;51.560;14.368;2024-02-16T10:13:42;4.82;;;2.80;;
65552;SDS011;72126;51.560;14.368;2024-02-16T10:16:07;4.32;;;2.97;;
65552;SDS011;72126;51.560;14.368;2024-02-16T10:18:35;5.53;;;2.88;;
65552;SDS011;72126;51.560;14.368;2024-02-16T10:21:02;4.25;;;2.85;;
65552;SDS011;72126;51.560;14.368;2024-02-16T10:23:28;4.20;;;2.97;;
65552;SDS011;72126;51.560;14.368;2024-02-16T10:25:53;3.30;;;2.63;;
65552;SDS011;72126;51.560;14.368;2024-02-16T10:28:19;3.75;;;2.78;;
65552;SDS011;72126;51.560;14.368;2024-02-16T10:30:44;3.80;;;2.50;;
65552;SDS011;72126;51.560;14.368;2024-02-16T10:33:10;3.40;;;2.47;;
65552;SDS011;72126;51.560;14.368;2024-02-16T10:35:36;2.53;;;2.15;;
65552;SDS011;72126;51.560;14.368;2024-02-16T10:38:02;3.25;;;2.30;;
65552;SDS011;72126;51.560;14.368;2024-02-16T10:40:28;3.88;;;2.45;;
65552;SDS011;72126;51.560;14.368;2024-02-16T10:42:53;4.18;;;2.65;;
65552;SDS011;72126;51.560;14.368;2024-02-16T10:45:19;2.97;;;2.13;;
65552;SDS011;72126;51.560;14.368;2024-02-16T10:47:46;3.83;;;2.55;;
65552;SDS011;72126;51.560;14.368;2024-02-16T10:50:11;4.45;;;2.85;;
65552;SDS011;72126;51.560;14.368;2024-02-16T10:52:37;5.43;;;2.83;;
65552;SDS011;72126;51.560;14.368;2024-02-16T10:55:06;2.90;;;2.20;;
65552;SDS011;72126;51.560;14.368;2024-02-16T10:57:35;3.40;;;2.22;;
65552;SDS011;72126;51.560;14.368;2024-02-16T11:00:00;2.80;;;2.25;;
65552;SDS011;72126;51.560;14.368;2024-02-16T11:02:32;4.65;;;2.60;;
65552;SDS011;72126;51.560;14.368;2024-02-16T11:04:57;4.10;;;3.27;;
65552;SDS011;72126;51.560;14.368;2024-02-16T11:07:22;4.00;;;3.00;;
65552;SDS011;72126;51.560;14.368;2024-02-16T11:09:49;4.18;;;2.95;;
65552;SDS011;72126;51.560;14.368;2024-02-16T11:12:15;3.72;;;2.65;;
65552;SDS011;72126;51.560;14.368;2024-02-16T11:14:41;3.45;;;2.45;;
65552;SDS011;72126;51.560;14.368;2024-02-16T11:17:08;3.92;;;2.47;;
65552;SDS011;72126;51.560;14.368;2024-02-16T11:19:37;2.72;;;2.45;;
65552;SDS011;72126;51.560;14.368;2024-02-16T11:22:06;3.08;;;2.35;;
65552;SDS011;72126;51.560;14.368;2024-02-16T11:24:31;4.00;;;2.50;;
65552;SDS011;72126;51.560;14.368;2024-02-16T11:26:57;3.55;;;2.40;;
65552;SDS011;72126;51.560;14.368;2024-02-16T11:29:22;2.40;;;2.13;;
65552;SDS011;72126;51.560;14.368;2024-02-16T11:31:48;4.55;;;3.22;;
65552;SDS011;72126;51.560;14.368;2024-02-16T11:34:21;3.30;;;2.25;;
65552;SDS011;72126;51.560;14.368;2024-02-16T11:36:47;3.92;;;3.05;;
65552;SDS011;72126;51.560;14.368;2024-02-16T11:39:12;3.27;;;2.40;;
65552;SDS011;72126;51.560;14.368;2024-02-16T11:41:38;3.65;;;2.50;;
65552;SDS011;72126;51.560;14.368;2024-02-16T11:44:03;3.30;;;2.33;;
65552;SDS011;72126;51.560;14.368;2024-02-16T11:46:28;4.32;;;2.50;;
65552;SDS011;72126;51.560;14.368;2024-02-16T11:49:03;3.30;;;2.63;;
65552;SDS011;72126;51.560;14.368;2024-02-16T11:51:32;3.30;;;2.30;;
65552;SDS011;72126;51.560;14.368;2024-02-16T11:53:58;4.25;;;2.92;;
65552;SDS011;72126;51.560;14.368;2024-02-16T11:56:24;2.85;;;2.30;;
65552;SDS011;72126;51.560;14.368;2024-02-16T11:58:50;4.32;;;2.85;;
65552;SDS011;72126;51.560;14.368;2024-02-16T12:01:15;4.63;;;2.85;;
65552;SDS011;72126;51.560;14.368;2024-02-16T12:03:41;3.28;;;2.45;;
65552;SDS011;72126;51.560;14.368;2024-02-16T12:06:06;3.65;;;2.63;;
65552;SDS011;72126;51.560;14.368;2024-02-16T12:08:32;4.15;;;3.03;;
65552;SDS011;72126;51.560;14.368;2024-02-16T12:10:58;4.07;;;2.00;;
65552;SDS011;72126;51.560;14.368;2024-02-16T12:13:23;2.63;;;2.05;;
65552;SDS011;72126;51.560;14.368;2024-02-16T12:15:49;3.27;;;2.37;;
65552;SDS011;72126;51.560;14.368;2024-02-16T12:18:19;4.28;;;2.45;;
65552;SDS011;72126;51.560;14.368;2024-02-16T12:20:44;3.50;;;2.30;;
65552;SDS011;72126;51.560;14.368;2024-02-16T12:23:10;3.90;;;2.53;;
65552;SDS011;72126;51.560;14.368;2024-02-16T12:25:36;3.67;;;2.80;;
65552;SDS011;72126;51.560;14.368;2024-02-16T12:28:01;2.87;;;2.00;;
65552;SDS011;72126;51.560;14.368;2024-02-16T12:30:26;3.30;;;2.65;;
65552;SDS011;72126;51.560;14.368;2024-02-16T12:32:52;3.97;;;2.60;;
65552;SDS011;72126;51.560;14.368;2024-02-16T12:35:17;2.10;;;1.90;;
65552;SDS011;72126;51.560;14.368;2024-02-16T12:37:42;4.30;;;3.20;;
65552;SDS011;72126;51.560;14.368;2024-02-16T12:40:08;5.05;;;2.70;;
65552;SDS011;72126;51.560;14.368;2024-02-16T12:42:33;5.22;;;3.17;;
65552;SDS011;72126;51.560;14.368;2024-02-16T12:44:59;3.10;;;2.50;;
65552;SDS011;72126;51.560;14.368;2024-02-16T12:47:24;4.00;;;3.10;;
65552;SDS011;72126;51.560;14.368;2024-02-16T12:49:49;3.20;;;2.50;;
65552;SDS011;72126;51.560;14.368;2024-02-16T12:52:19;4.53;;;2.67;;
65552;SDS011;72126;51.560;14.368;2024-02-16T12:54:45;4.10;;;2.90;;
65552;SDS011;72126;51.560;14.368;2024-02-16T12:57:12;4.00;;;2.50;;
65552;SDS011;72126;51.560;14.368;2024-02-16T12:59:37;4.60;;;2.90;;
65552;SDS011;72126;51.560;14.368;2024-02-16T13:02:03;3.17;;;2.30;;
65552;SDS011;72126;51.560;14.368;2024-02-16T13:04:28;3.92;;;2.90;;
65552;SDS011;72126;51.560;14.368;2024-02-16T13:06:53;2.70;;;2.00;;
65552;SDS011;72126;51.560;14.368;2024-02-16T13:09:18;6.03;;;2.73;;
65552;SDS011;72126;51.560;14.368;2024-02-16T13:11:43;4.70;;;3.00;;
65552;SDS011;72126;51.560;14.368;2024-02-16T13:14:09;4.85;;;3.00;;
65552;SDS011;72126;51.560;14.368;2024-02-16T13:16:34;3.17;;;1.80;;
65552;SDS011;72126;51.560;14.368;2024-02-16T13:18:59;3.53;;;2.40;;
65552;SDS011;72126;51.560;14.368;2024-02-16T13:21:24;3.73;;;2.20;;
65552;SDS011;72126;51.560;14.368;2024-02-16T13:23:49;3.30;;;2.30;;
65552;SDS011;72126;51.560;14.368;2024-02-16T13:26:15;3.57;;;2.43;;
65552;SDS011;72126;51.560;14.368;2024-02-16T13:28:40;3.92;;;2.85;;
65552;SDS011;72126;51.560;14.368;2024-02-16T13:31:05;4.13;;;2.67;;
65552;SDS011;72126;51.560;14.368;2024-02-16T13:33:30;4.70;;;3.33;;
65552;SDS011;72126;51.560;14.368;2024-02-16T13:35:56;4.63;;;2.83;;
65552;SDS011;72126;51.560;14.368;2024-02-16T13:38:21;3.60;;;2.40;;
65552;SDS011;72126;51.560;14.368;2024-02-16T13:40:46;3.07;;;2.17;;
65552;SDS011;72126;51.560;14.368;2024-02-16T13:43:11;3.50;;;2.70;;
65552;SDS011;72126;51.560;14.368;2024-02-16T13:45:50;3.55;;;2.60;;
65552;SDS011;72126;51.560;14.368;2024-02-16T13:48:17;4.18;;;2.75;;
65552;SDS011;72126;51.560;14.368;2024-02-16T13:50:46;3.75;;;2.80;;
65552;SDS011;72126;51.560;14.368;2024-02-16T13:53:12;3.73;;;2.43;;
65552;SDS011;72126;51.560;14.368;2024-02-16T13:55:38;3.42;;;2.72;;
65552;SDS011;72126;51.560;14.368;2024-02-16T13:58:04;4.47;;;2.37;;
65552;SDS011;72126;51.560;14.368;2024-02-16T14:00:29;4.18;;;2.70;;
65552;SDS011;72126;51.560;14.368;2024-02-16T14:02:54;3.47;;;2.70;;
65552;SDS011;72126;51.560;14.368;2024-02-16T14:05:19;3.42;;;2.55;;
65552;SDS011;72126;51.560;14.368;2024-02-16T14:07:44;5.20;;;3.10;;
65552;SDS011;72126;51.560;14.368;2024-02-16T14:10:10;2.97;;;2.20;;
65552;SDS011;72126;51.560;14.368;2024-02-16T14:12:35;4.03;;;3.00;;
65552;SDS011;72126;51.560;14.368;2024-02-16T14:15:00;4.47;;;3.00;;
65552;SDS011;72126;51.560;14.368;2024-02-16T14:17:25;3.17;;;2.23;;
65552;SDS011;72126;51.560;14.368;2024-02-16T14:19:50;3.67;;;2.53;;
65552;SDS011;72126;51.560;14.368;2024-02-16T14:22:16;3.03;;;2.20;;
65552;SDS011;72126;51.560;14.368;2024-02-16T14:24:41;5.65;;;3.45;;
65552;SDS011;72126;51.560;14.368;2024-02-16T14:27:06;5.07;;;3.13;;